createdAt,value
2023-03-28T00:00:08.675Z,1856.7450
2023-03-28T00:00:19.738Z,1843.9230
2023-03-28T00:00:30.808Z,1847.7510
2023-03-28T00:00:41.859Z,1851.5950
2023-03-28T00:00:52.921Z,1852.8800
2023-03-28T00:01:03.992Z,1838.8430
2023-03-28T00:01:15.062Z,1843.9230
2023-03-28T00:01:26.112Z,1856.7450
2023-03-28T00:01:37.170Z,1851.5950
2023-03-28T00:01:48.220Z,1841.3790
2023-03-28T00:01:59.293Z,1845.1970
2023-03-28T00:02:10.340Z,1851.5950
2023-03-28T00:02:21.406Z,1849.0300
2023-03-28T00:02:32.508Z,1852.8800
2023-03-28T00:02:43.598Z,1835.0520
2023-03-28T00:02:54.729Z,1854.1670
2023-03-28T00:03:05.830Z,1854.1670
2023-03-28T00:03:16.961Z,1851.5950
2023-03-28T00:03:28.167Z,1856.7450
2023-03-28T00:03:39.332Z,1851.5950
2023-03-28T00:03:50.720Z,1856.7450
2023-03-28T00:04:01.821Z,1859.3311
2023-03-28T00:04:13.003Z,1851.5950
2023-03-28T00:04:24.273Z,1845.1970
2023-03-28T00:04:35.337Z,1836.3140
2023-03-28T00:04:46.382Z,1849.0300
2023-03-28T00:04:57.482Z,1846.4730
2023-03-28T00:05:08.642Z,1842.6500
2023-03-28T00:05:19.889Z,1841.3790
2023-03-28T00:05:31.153Z,1838.8430
2023-03-28T00:05:42.351Z,1831.2760
2023-03-28T00:05:53.596Z,1828.7670
2023-03-28T00:06:04.639Z,1847.7510
2023-03-28T00:06:15.743Z,1843.9230
2023-03-28T00:06:26.880Z,1843.9230
2023-03-28T00:06:37.949Z,1831.2760
2023-03-28T00:06:49.014Z,1841.3790
2023-03-28T00:07:00.163Z,1852.8800
2023-03-28T00:07:11.218Z,1849.0300
2023-03-28T00:07:22.240Z,1846.4730
2023-03-28T00:07:33.280Z,1835.0520
2023-03-28T00:07:44.352Z,1850.3120
2023-03-28T00:07:55.463Z,1849.0300
2023-03-28T00:08:06.523Z,1845.1970
2023-03-28T00:08:17.593Z,1830.0210
2023-03-28T00:08:28.635Z,1846.4730
2023-03-28T00:08:39.703Z,1828.7670
2023-03-28T00:08:50.760Z,1845.1970
2023-03-28T00:09:01.781Z,1849.0300
2023-03-28T00:09:12.831Z,1832.5330
2023-03-28T00:09:23.880Z,1845.1970
2023-03-28T00:09:34.962Z,1845.1970
2023-03-28T00:09:46.031Z,1833.7910
2023-03-28T00:09:57.082Z,1826.2650
2023-03-28T00:10:08.145Z,1833.7910
2023-03-28T00:10:19.193Z,1845.1970
2023-03-28T00:10:30.260Z,1843.9230
2023-03-28T00:10:41.320Z,1823.7700
2023-03-28T00:10:52.370Z,1841.3790
2023-03-28T00:11:03.440Z,1826.2650
2023-03-28T00:11:14.499Z,1831.2760
2023-03-28T00:11:25.554Z,1843.9230
2023-03-28T00:11:36.622Z,1846.4730
2023-03-28T00:11:47.684Z,1836.3140
2023-03-28T00:11:58.758Z,1841.3790
2023-03-28T00:12:09.861Z,1826.2650
2023-03-28T00:12:20.903Z,1835.0520
2023-03-28T00:12:31.964Z,1833.7910
2023-03-28T00:12:43.043Z,1843.9230
2023-03-28T00:12:54.184Z,1847.7510
2023-03-28T00:13:05.312Z,1831.2760
2023-03-28T00:13:16.367Z,1837.5770
2023-03-28T00:13:27.400Z,1816.3270
2023-03-28T00:13:38.512Z,1838.8430
2023-03-28T00:13:49.576Z,1826.2650
2023-03-28T00:14:00.993Z,1830.0210
2023-03-28T00:14:12.422Z,1842.6500
2023-03-28T00:14:23.491Z,1821.2820
2023-03-28T00:14:34.528Z,1825.0170
2023-03-28T00:14:45.587Z,1841.3790
2023-03-28T00:14:56.640Z,1833.7910
2023-03-28T00:15:07.691Z,1833.7910
2023-03-28T00:15:18.717Z,1830.0210
2023-03-28T00:15:29.929Z,1832.5330
2023-03-28T00:15:41.021Z,1831.2760
2023-03-28T00:15:52.122Z,1820.0410
2023-03-28T00:16:03.215Z,1838.8430
2023-03-28T00:16:14.373Z,1823.7700
2023-03-28T00:16:25.568Z,1836.3140
2023-03-28T00:16:36.632Z,1811.3979
2023-03-28T00:16:47.677Z,1831.2760
2023-03-28T00:16:58.764Z,1838.8430
2023-03-28T00:17:09.826Z,1838.8430
2023-03-28T00:17:20.907Z,1840.1100
2023-03-28T00:17:32.046Z,1833.7910
2023-03-28T00:17:43.126Z,1833.7910
2023-03-28T00:17:54.205Z,1835.0520
2023-03-28T00:18:05.305Z,1830.0210
2023-03-28T00:18:16.404Z,1827.5150
2023-03-28T00:18:27.443Z,1830.0210
2023-03-28T00:18:38.502Z,1818.8010
2023-03-28T00:18:49.542Z,1828.7670
2023-03-28T00:19:00.601Z,1821.2820
2023-03-28T00:19:11.706Z,1831.2760
2023-03-28T00:19:22.762Z,1808.9430
2023-03-28T00:19:33.824Z,1831.2760
2023-03-28T00:19:44.886Z,1827.5150
2023-03-28T00:19:55.962Z,1816.3270
2023-03-28T00:20:08.739Z,1816.3270
2023-03-28T00:20:19.864Z,1823.7700
2023-03-28T00:20:30.924Z,1816.3270
2023-03-28T00:20:41.982Z,1811.3979
2023-03-28T00:20:53.060Z,1828.7670
2023-03-28T00:21:04.116Z,1827.5150
2023-03-28T00:21:15.122Z,1831.2760
2023-03-28T00:21:26.213Z,1813.8590
2023-03-28T00:21:37.285Z,1818.8010
2023-03-28T00:21:48.341Z,1823.7700
2023-03-28T00:21:59.384Z,1825.0170
2023-03-28T00:22:10.471Z,1821.2820
2023-03-28T00:22:21.585Z,1831.2760
2023-03-28T00:22:32.599Z,1831.2760
2023-03-28T00:22:43.671Z,1812.6270
2023-03-28T00:22:54.744Z,1831.2760
2023-03-28T00:23:05.801Z,1817.5630
2023-03-28T00:23:16.908Z,1816.3270
2023-03-28T00:23:27.924Z,1823.7700
2023-03-28T00:23:38.981Z,1808.9430
2023-03-28T00:23:50.027Z,1811.3979
2023-03-28T00:24:01.086Z,1820.0410
2023-03-28T00:24:12.143Z,1804.0540
2023-03-28T00:24:23.232Z,1807.7180
2023-03-28T00:24:34.270Z,1822.5260
2023-03-28T00:24:45.349Z,1828.7670
2023-03-28T00:24:56.412Z,1825.0170
2023-03-28T00:25:07.486Z,1821.2820
2023-03-28T00:25:18.523Z,1807.7180
2023-03-28T00:25:29.583Z,1821.2820
2023-03-28T00:25:40.650Z,1812.6270
2023-03-28T00:25:51.742Z,1823.7700
2023-03-28T00:26:02.802Z,1815.0920
2023-03-28T00:26:13.886Z,1817.5630
2023-03-28T00:26:25.079Z,1811.3979
2023-03-28T00:26:36.257Z,1817.5630
2023-03-28T00:26:47.283Z,1808.9430
2023-03-28T00:26:58.333Z,1818.8010
2023-03-28T00:27:09.362Z,1810.1689
2023-03-28T00:27:20.436Z,1813.8590
2023-03-28T00:27:31.511Z,1813.8590
2023-03-28T00:27:42.591Z,1813.8590
2023-03-28T00:27:53.651Z,1816.3270
2023-03-28T00:28:04.758Z,1818.8010
2023-03-28T00:28:15.903Z,1807.7180
2023-03-28T00:28:26.984Z,1818.8010
2023-03-28T00:28:38.063Z,1813.8590
2023-03-28T00:28:49.094Z,1811.3979
2023-03-28T00:29:00.142Z,1821.2820
2023-03-28T00:29:11.225Z,1816.3270
2023-03-28T00:29:22.287Z,1823.7700
2023-03-28T00:29:33.331Z,1808.9430
2023-03-28T00:29:44.392Z,1818.8010
2023-03-28T00:29:55.453Z,1811.3979
2023-03-28T00:30:06.520Z,1810.1689
2023-03-28T00:30:17.594Z,1813.8590
2023-03-28T00:30:28.686Z,1820.0410
2023-03-28T00:30:39.728Z,1815.0920
2023-03-28T00:30:50.856Z,1811.3979
2023-03-28T00:31:01.920Z,1802.8361
2023-03-28T00:31:13.111Z,1818.8010
2023-03-28T00:31:24.219Z,1816.3270
2023-03-28T00:31:35.439Z,1813.8590
2023-03-28T00:31:46.633Z,1806.4950
2023-03-28T00:31:57.693Z,1807.7180
2023-03-28T00:32:08.752Z,1816.3270
2023-03-28T00:32:19.831Z,1818.8010
2023-03-28T00:32:30.912Z,1806.4950
2023-03-28T00:32:41.966Z,1815.0920
2023-03-28T00:32:53.103Z,1816.3270
2023-03-28T00:33:04.260Z,1815.0920
2023-03-28T00:33:15.362Z,1818.8010
2023-03-28T00:33:26.446Z,1815.0920
2023-03-28T00:33:37.493Z,1808.9430
2023-03-28T00:33:48.564Z,1813.8590
2023-03-28T00:33:59.592Z,1823.7700
2023-03-28T00:34:10.631Z,1806.4950
2023-03-28T00:34:21.700Z,1815.0920
2023-03-28T00:34:32.761Z,1812.6270
2023-03-28T00:34:43.811Z,1817.5630
2023-03-28T00:34:54.844Z,1816.3270
2023-03-28T00:35:05.890Z,1811.3979
2023-03-28T00:35:16.959Z,1810.1689
2023-03-28T00:35:28.057Z,1795.5620
2023-03-28T00:35:39.133Z,1813.8590
2023-03-28T00:35:50.197Z,1793.1500
2023-03-28T00:36:01.653Z,1818.8010
2023-03-28T00:36:13.063Z,1811.3979
2023-03-28T00:36:24.133Z,1812.6270
2023-03-28T00:36:35.183Z,1821.2820
2023-03-28T00:36:46.233Z,1820.0410
2023-03-28T00:36:57.282Z,1806.4950
2023-03-28T00:37:08.342Z,1794.3550
2023-03-28T00:37:19.412Z,1804.0540
2023-03-28T00:37:30.489Z,1816.3270
2023-03-28T00:37:45.542Z,1810.1689
2023-03-28T00:37:56.603Z,1808.9430
2023-03-28T00:38:07.678Z,1813.8590
2023-03-28T00:38:18.779Z,1789.5439
2023-03-28T00:38:29.846Z,1789.5439
2023-03-28T00:38:40.903Z,1799.1910
2023-03-28T00:38:51.963Z,1797.9800
2023-03-28T00:39:03.007Z,1804.0540
2023-03-28T00:39:14.064Z,1800.4050
2023-03-28T00:39:25.112Z,1807.7180
2023-03-28T00:39:36.182Z,1813.8590
2023-03-28T00:39:47.238Z,1791.9460
2023-03-28T00:39:58.304Z,1812.6270
2023-03-28T00:40:09.353Z,1808.9430
2023-03-28T00:40:20.401Z,1810.1689
2023-03-28T00:40:31.464Z,1787.1490
2023-03-28T00:40:42.522Z,1788.3459
2023-03-28T00:40:53.583Z,1796.7700
2023-03-28T00:41:04.642Z,1801.6190
2023-03-28T00:41:15.726Z,1816.3270
2023-03-28T00:41:26.808Z,1811.3979
2023-03-28T00:41:37.852Z,1828.7670
2023-03-28T00:41:48.904Z,1810.1689
2023-03-28T00:41:59.964Z,1807.7180
2023-03-28T00:42:11.025Z,1808.9430
2023-03-28T00:42:22.106Z,1812.6270
2023-03-28T00:42:33.182Z,1810.1689
2023-03-28T00:42:44.242Z,1804.0540
2023-03-28T00:42:55.298Z,1794.3550
2023-03-28T00:43:06.359Z,1791.9460
2023-03-28T00:43:17.411Z,1804.0540
2023-03-28T00:43:28.513Z,1801.6190
2023-03-28T00:43:39.566Z,1808.9430
2023-03-28T00:43:50.612Z,1808.9430
2023-03-28T00:44:01.659Z,1799.1910
2023-03-28T00:44:12.724Z,1810.1689
2023-03-28T00:44:23.787Z,1806.4950
2023-03-28T00:44:34.843Z,1801.6190
2023-03-28T00:44:45.913Z,1812.6270
2023-03-28T00:44:56.966Z,1804.0540
2023-03-28T00:45:07.999Z,1807.7180
2023-03-28T00:45:19.076Z,1810.1689
2023-03-28T00:45:30.125Z,1815.0920
2023-03-28T00:45:41.193Z,1804.0540
2023-03-28T00:46:06.243Z,1808.9430
2023-03-28T00:46:09.603Z,1796.7700
2023-03-28T00:46:20.805Z,1791.9460
2023-03-28T00:46:31.969Z,1805.2740
2023-03-28T00:46:43.042Z,1782.3760
2023-03-28T00:46:54.089Z,1785.9530
2023-03-28T00:47:05.180Z,1799.1910
2023-03-28T00:47:16.276Z,1799.1910
2023-03-28T00:47:27.311Z,1791.9460
2023-03-28T00:47:38.420Z,1810.1689
2023-03-28T00:47:49.571Z,1811.3979
2023-03-28T00:48:00.771Z,1810.1689
2023-03-28T00:48:14.254Z,1791.9460
2023-03-28T00:48:26.831Z,1791.9460
2023-03-28T00:48:37.906Z,1799.1910
2023-03-28T00:48:48.960Z,1793.1500
2023-03-28T00:48:59.993Z,1796.7700
2023-03-28T00:49:11.079Z,1804.0540
2023-03-28T00:49:22.122Z,1789.5439
2023-03-28T00:49:33.184Z,1796.7700
2023-03-28T00:49:44.243Z,1802.8361
2023-03-28T00:49:55.322Z,1790.7440
2023-03-28T00:50:06.401Z,1808.9430
2023-03-28T00:50:17.473Z,1804.0540
2023-03-28T00:50:28.526Z,1802.8361
2023-03-28T00:50:39.582Z,1805.2740
2023-03-28T00:50:50.663Z,1796.7700
2023-03-28T00:51:01.720Z,1801.6190
2023-03-28T00:51:12.792Z,1800.4050
2023-03-28T00:51:23.813Z,1811.3979
2023-03-28T00:51:34.842Z,1799.1910
2023-03-28T00:51:45.908Z,1806.4950
2023-03-28T00:51:56.971Z,1806.4950
2023-03-28T00:52:08.028Z,1801.6190
2023-03-28T00:52:19.078Z,1785.9530
2023-03-28T00:52:30.142Z,1806.4950
2023-03-28T00:52:41.230Z,1804.0540
2023-03-28T00:52:52.279Z,1805.2740
2023-03-28T00:53:03.352Z,1794.3550
2023-03-28T00:53:14.439Z,1801.6190
2023-03-28T00:53:25.485Z,1807.7180
2023-03-28T00:53:36.574Z,1804.0540
2023-03-28T00:53:47.658Z,1800.4050
2023-03-28T00:53:58.712Z,1793.1500
2023-03-28T00:54:09.794Z,1793.1500
2023-03-28T00:54:20.851Z,1808.9430
2023-03-28T00:54:31.904Z,1781.1870
2023-03-28T00:54:42.968Z,1811.3979
2023-03-28T00:54:54.033Z,1781.1870
2023-03-28T00:55:05.079Z,1796.7700
2023-03-28T00:55:16.146Z,1807.7180
2023-03-28T00:55:27.209Z,1788.3459
2023-03-28T00:55:38.272Z,1805.2740
2023-03-28T00:55:49.329Z,1807.7180
2023-03-28T00:56:00.548Z,1800.4050
2023-03-28T00:56:11.821Z,1804.0540
2023-03-28T00:56:22.874Z,1804.0540
2023-03-28T00:56:33.920Z,1794.3550
2023-03-28T00:56:45.007Z,1811.3979
2023-03-28T00:56:56.067Z,1807.7180
2023-03-28T00:57:07.149Z,1820.0410
2023-03-28T00:57:18.254Z,1805.2740
2023-03-28T00:57:29.272Z,1806.4950
2023-03-28T00:57:40.326Z,1789.5439
2023-03-28T00:57:51.405Z,1806.4950
2023-03-28T00:58:02.462Z,1813.8590
2023-03-28T00:58:13.544Z,1805.2740
2023-03-28T00:58:24.574Z,1804.0540
2023-03-28T00:58:35.638Z,1808.9430
2023-03-28T00:58:46.745Z,1802.8361
2023-03-28T00:58:57.828Z,1807.7180
2023-03-28T00:59:08.961Z,1811.3979
2023-03-28T00:59:20.058Z,1811.3979
2023-03-28T00:59:31.108Z,1802.8361
2023-03-28T00:59:42.174Z,1804.0540
2023-03-28T00:59:53.230Z,1812.6270
2023-03-28T01:00:04.292Z,1805.2740
2023-03-28T01:00:15.353Z,1800.4050
2023-03-28T01:00:26.474Z,1806.4950
2023-03-28T01:00:37.536Z,1791.9460
2023-03-28T01:00:48.580Z,1811.3979
2023-03-28T01:00:59.636Z,1813.8590
2023-03-28T01:01:10.744Z,1811.3979
2023-03-28T01:01:21.787Z,1808.9430
2023-03-28T01:01:32.862Z,1808.9430
2023-03-28T01:01:43.928Z,1806.4950
2023-03-28T01:01:55.010Z,1808.9430
2023-03-28T01:02:06.143Z,1799.1910
2023-03-28T01:02:17.466Z,1813.8590
2023-03-28T01:02:28.623Z,1805.2740
2023-03-28T01:02:39.801Z,1808.9430
2023-03-28T01:02:51.078Z,1813.8590
2023-03-28T01:03:02.437Z,1811.3979
2023-03-28T01:03:13.730Z,1812.6270
2023-03-28T01:03:25.135Z,1799.1910
2023-03-28T01:03:36.289Z,1804.0540
2023-03-28T01:03:47.471Z,1831.2760
2023-03-28T01:03:58.573Z,1822.5260
2023-03-28T01:04:09.651Z,1811.3979
2023-03-28T01:04:20.768Z,1812.6270
2023-03-28T01:04:31.826Z,1795.5620
2023-03-28T01:04:42.893Z,1810.1689
2023-03-28T01:04:53.947Z,1804.0540
2023-03-28T01:05:04.991Z,1812.6270
2023-03-28T01:05:16.066Z,1806.4950
2023-03-28T01:05:27.139Z,1808.9430
2023-03-28T01:05:38.195Z,1796.7700
2023-03-28T01:05:49.256Z,1816.3270
2023-03-28T01:06:00.550Z,1789.5439
2023-03-28T01:06:11.956Z,1807.7180
2023-03-28T01:06:23.001Z,1806.4950
2023-03-28T01:06:34.057Z,1811.3979
2023-03-28T01:06:45.187Z,1797.9800
2023-03-28T01:06:56.238Z,1810.1689
2023-03-28T01:07:07.322Z,1807.7180
2023-03-28T01:07:18.364Z,1806.4950
2023-03-28T01:07:29.595Z,1790.7440
2023-03-28T01:07:40.658Z,1790.7440
2023-03-28T01:07:51.748Z,1806.4950
2023-03-28T01:08:02.782Z,1813.8590
2023-03-28T01:08:13.860Z,1813.8590
2023-03-28T01:08:24.928Z,1811.3979
2023-03-28T01:08:35.979Z,1813.8590
2023-03-28T01:08:47.078Z,1813.8590
2023-03-28T01:08:58.236Z,1812.6270
2023-03-28T01:09:09.310Z,1812.6270
2023-03-28T01:09:20.396Z,1816.3270
2023-03-28T01:09:31.507Z,1813.8590
2023-03-28T01:09:42.548Z,1808.9430
2023-03-28T01:09:53.590Z,1813.8590
2023-03-28T01:10:04.671Z,1811.3979
2023-03-28T01:10:15.725Z,1806.4950
2023-03-28T01:10:26.807Z,1804.0540
2023-03-28T01:10:37.875Z,1821.2820
2023-03-28T01:10:48.947Z,1808.9430
2023-03-28T01:11:00.053Z,1813.8590
2023-03-28T01:11:11.094Z,1813.8590
2023-03-28T01:11:22.160Z,1791.9460
2023-03-28T01:11:33.221Z,1801.6190
2023-03-28T01:11:44.277Z,1813.8590
2023-03-28T01:11:55.348Z,1805.2740
2023-03-28T01:12:06.446Z,1812.6270
2023-03-28T01:12:17.496Z,1807.7180
2023-03-28T01:12:28.674Z,1810.1689
2023-03-28T01:12:39.827Z,1817.5630
2023-03-28T01:12:50.908Z,1807.7180
2023-03-28T01:13:01.964Z,1804.0540
2023-03-28T01:13:13.060Z,1810.1689
2023-03-28T01:13:24.125Z,1815.0920
2023-03-28T01:13:35.205Z,1793.1500
2023-03-28T01:13:46.245Z,1816.3270
2023-03-28T01:13:57.434Z,1800.4050
2023-03-28T01:14:08.527Z,1811.3979
2023-03-28T01:14:19.630Z,1822.5260
2023-03-28T01:14:30.686Z,1811.3979
2023-03-28T01:14:41.854Z,1811.3979
2023-03-28T01:14:52.926Z,1808.9430
2023-03-28T01:15:03.986Z,1808.9430
2023-03-28T01:15:15.162Z,1804.0540
2023-03-28T01:15:26.222Z,1807.7180
2023-03-28T01:15:37.257Z,1818.8010
2023-03-28T01:15:48.325Z,1808.9430
2023-03-28T01:15:59.795Z,1812.6270
2023-03-28T01:16:11.192Z,1810.1689
2023-03-28T01:16:22.337Z,1810.1689
2023-03-28T01:16:33.412Z,1813.8590
2023-03-28T01:16:44.564Z,1807.7180
2023-03-28T01:16:55.595Z,1816.3270
2023-03-28T01:17:06.668Z,1800.4050
2023-03-28T01:17:17.717Z,1810.1689
2023-03-28T01:17:28.821Z,1813.8590
2023-03-28T01:17:39.880Z,1817.5630
2023-03-28T01:17:50.961Z,1813.8590
2023-03-28T01:18:02.059Z,1816.3270
2023-03-28T01:18:13.152Z,1799.1910
2023-03-28T01:18:24.184Z,1813.8590
2023-03-28T01:18:35.257Z,1816.3270
2023-03-28T01:18:46.326Z,1817.5630
2023-03-28T01:18:57.399Z,1813.8590
2023-03-28T01:19:08.441Z,1827.5150
2023-03-28T01:19:19.510Z,1811.3979
2023-03-28T01:19:30.554Z,1818.8010
2023-03-28T01:19:41.644Z,1808.9430
2023-03-28T01:19:52.715Z,1813.8590
2023-03-28T01:20:03.756Z,1811.3979
2023-03-28T01:20:14.826Z,1817.5630
2023-03-28T01:20:25.907Z,1820.0410
2023-03-28T01:20:36.981Z,1796.7700
2023-03-28T01:20:48.033Z,1813.8590
2023-03-28T01:20:59.120Z,1817.5630
2023-03-28T01:21:10.176Z,1813.8590
2023-03-28T01:21:21.235Z,1794.3550
2023-03-28T01:21:32.311Z,1813.8590
2023-03-28T01:21:43.348Z,1810.1689
2023-03-28T01:21:54.389Z,1813.8590
2023-03-28T01:22:05.465Z,1794.3550
2023-03-28T01:22:16.541Z,1813.8590
2023-03-28T01:22:27.634Z,1818.8010
2023-03-28T01:22:38.676Z,1817.5630
2023-03-28T01:22:56.607Z,1805.2740
2023-03-28T01:23:06.720Z,1808.9430
2023-03-28T01:23:17.766Z,1812.6270
2023-03-28T01:23:28.830Z,1799.1910
2023-03-28T01:23:39.905Z,1820.0410
2023-03-28T01:23:50.954Z,1797.9800
2023-03-28T01:24:11.179Z,1808.9430
2023-03-28T01:24:19.010Z,1804.0540
2023-03-28T01:24:30.096Z,1804.0540
2023-03-28T01:24:41.172Z,1808.9430
2023-03-28T01:24:52.196Z,1800.4050
2023-03-28T01:25:03.267Z,1801.6190
2023-03-28T01:25:14.334Z,1811.3979
2023-03-28T01:25:25.417Z,1804.0540
2023-03-28T01:25:36.489Z,1815.0920
2023-03-28T01:25:47.533Z,1816.3270
2023-03-28T01:25:58.765Z,1808.9430
2023-03-28T01:26:09.902Z,1806.4950
2023-03-28T01:26:20.979Z,1807.7180
2023-03-28T01:26:32.045Z,1812.6270
2023-03-28T01:26:43.136Z,1811.3979
2023-03-28T01:26:54.243Z,1817.5630
2023-03-28T01:27:05.270Z,1812.6270
2023-03-28T01:27:16.317Z,1822.5260
2023-03-28T01:27:27.421Z,1807.7180
2023-03-28T01:27:38.453Z,1799.1910
2023-03-28T01:27:49.543Z,1806.4950
2023-03-28T01:28:00.620Z,1797.9800
2023-03-28T01:28:11.697Z,1817.5630
2023-03-28T01:28:22.763Z,1818.8010
2023-03-28T01:28:33.829Z,1816.3270
2023-03-28T01:28:44.907Z,1812.6270
2023-03-28T01:28:55.944Z,1799.1910
2023-03-28T01:29:07.058Z,1815.0920
2023-03-28T01:29:18.114Z,1817.5630
2023-03-28T01:29:29.201Z,1810.1689
2023-03-28T01:29:40.262Z,1807.7180
2023-03-28T01:29:51.334Z,1817.5630
2023-03-28T01:30:02.402Z,1818.8010
2023-03-28T01:30:13.456Z,1806.4950
2023-03-28T01:30:24.524Z,1811.3979
2023-03-28T01:30:35.579Z,1816.3270
2023-03-28T01:30:46.608Z,1812.6270
2023-03-28T01:30:57.663Z,1816.3270
2023-03-28T01:31:08.733Z,1817.5630
2023-03-28T01:31:19.843Z,1815.0920
2023-03-28T01:31:31.057Z,1836.3140
2023-03-28T01:31:42.194Z,1813.8590
2023-03-28T01:31:53.284Z,1816.3270
2023-03-28T01:32:04.341Z,1816.3270
2023-03-28T01:32:15.400Z,1817.5630
2023-03-28T01:32:26.516Z,1816.3270
2023-03-28T01:32:37.577Z,1817.5630
2023-03-28T01:32:48.663Z,1820.0410
2023-03-28T01:32:59.736Z,1812.6270
2023-03-28T01:33:10.761Z,1816.3270
2023-03-28T01:33:21.832Z,1816.3270
2023-03-28T01:33:32.868Z,1815.0920
2023-03-28T01:33:43.917Z,1816.3270
2023-03-28T01:33:54.982Z,1816.3270
2023-03-28T01:34:06.047Z,1808.9430
2023-03-28T01:34:17.130Z,1808.9430
2023-03-28T01:34:28.180Z,1818.8010
2023-03-28T01:34:39.235Z,1815.0920
2023-03-28T01:34:50.309Z,1818.8010
2023-03-28T01:35:01.344Z,1820.0410
2023-03-28T01:35:12.421Z,1828.7670
2023-03-28T01:35:23.525Z,1818.8010
2023-03-28T01:35:34.645Z,1811.3979
2023-03-28T01:35:45.716Z,1818.8010
2023-03-28T01:35:56.844Z,1820.0410
2023-03-28T01:36:08.065Z,1806.4950
2023-03-28T01:36:34.651Z,1806.4950
2023-03-28T01:36:36.097Z,1811.3979
2023-03-28T01:36:47.155Z,1815.0920
2023-03-28T01:36:58.232Z,1815.0920
2023-03-28T01:37:09.272Z,1810.1689
2023-03-28T01:37:20.345Z,1806.4950
2023-03-28T01:37:31.392Z,1822.5260
2023-03-28T01:37:42.433Z,1811.3979
2023-03-28T01:37:53.520Z,1793.1500
2023-03-28T01:38:04.593Z,1801.6190
2023-03-28T01:38:15.677Z,1811.3979
2023-03-28T01:38:26.742Z,1818.8010
2023-03-28T01:38:37.792Z,1804.0540
2023-03-28T01:38:48.853Z,1821.2820
2023-03-28T01:38:59.907Z,1796.7700
2023-03-28T01:39:11.000Z,1813.8590
2023-03-28T01:39:22.071Z,1811.3979
2023-03-28T01:39:33.136Z,1816.3270
2023-03-28T01:39:44.196Z,1825.0170
2023-03-28T01:39:55.262Z,1811.3979
2023-03-28T01:40:06.349Z,1821.2820
2023-03-28T01:40:17.414Z,1816.3270
2023-03-28T01:40:28.453Z,1817.5630
2023-03-28T01:40:39.513Z,1817.5630
2023-03-28T01:40:50.589Z,1808.9430
2023-03-28T01:41:01.650Z,1826.2650
2023-03-28T01:41:12.716Z,1821.2820
2023-03-28T01:41:23.765Z,1816.3270
2023-03-28T01:41:34.823Z,1812.6270
2023-03-28T01:41:45.904Z,1821.2820
2023-03-28T01:41:56.960Z,1816.3270
2023-03-28T01:42:07.988Z,1821.2820
2023-03-28T01:42:19.068Z,1821.2820
2023-03-28T01:42:30.103Z,1823.7700
2023-03-28T01:42:41.154Z,1823.7700
2023-03-28T01:42:52.202Z,1810.1689
2023-03-28T01:43:03.302Z,1817.5630
2023-03-28T01:43:14.342Z,1820.0410
2023-03-28T01:43:25.425Z,1807.7180
2023-03-28T01:43:36.478Z,1820.0410
2023-03-28T01:43:47.520Z,1816.3270
2023-03-28T01:43:58.596Z,1823.7700
2023-03-28T01:44:09.629Z,1828.7670
2023-03-28T01:44:20.734Z,1818.8010
2023-03-28T01:44:31.785Z,1821.2820
2023-03-28T01:44:42.858Z,1811.3979
2023-03-28T01:44:53.935Z,1820.0410
2023-03-28T01:45:05.021Z,1823.7700
2023-03-28T01:45:16.073Z,1816.3270
2023-03-28T01:45:27.192Z,1807.7180
2023-03-28T01:45:38.262Z,1815.0920
2023-03-28T01:45:49.342Z,1800.4050
2023-03-28T01:46:00.563Z,1804.0540
2023-03-28T01:46:11.834Z,1817.5630
2023-03-28T01:46:22.915Z,1822.5260
2023-03-28T01:46:33.960Z,1826.2650
2023-03-28T01:46:45.027Z,1823.7700
2023-03-28T01:46:56.082Z,1810.1689
2023-03-28T01:47:07.135Z,1823.7700
2023-03-28T01:47:18.191Z,1826.2650
2023-03-28T01:47:29.285Z,1818.8010
2023-03-28T01:47:40.352Z,1804.0540
2023-03-28T01:47:51.462Z,1826.2650
2023-03-28T01:48:02.548Z,1806.4950
2023-03-28T01:48:13.630Z,1818.8010
2023-03-28T01:48:24.686Z,1805.2740
2023-03-28T01:48:35.769Z,1823.7700
2023-03-28T01:48:46.815Z,1821.2820
2023-03-28T01:48:57.886Z,1832.5330
2023-03-28T01:49:08.955Z,1818.8010
2023-03-28T01:49:20.033Z,1826.2650
2023-03-28T01:49:31.113Z,1825.0170
2023-03-28T01:49:42.163Z,1826.2650
2023-03-28T01:49:53.220Z,1826.2650
2023-03-28T01:50:04.311Z,1806.4950
2023-03-28T01:50:15.372Z,1833.7910
2023-03-28T01:50:26.436Z,1826.2650
2023-03-28T01:50:37.518Z,1831.2760
2023-03-28T01:50:48.560Z,1826.2650
2023-03-28T01:50:59.630Z,1828.7670
2023-03-28T01:51:10.709Z,1828.7670
2023-03-28T01:51:21.741Z,1833.7910
2023-03-28T01:51:32.812Z,1818.8010
2023-03-28T01:51:43.891Z,1821.2820
2023-03-28T01:51:54.992Z,1823.7700
2023-03-28T01:52:06.033Z,1837.5770
2023-03-28T01:52:17.110Z,1815.0920
2023-03-28T01:52:28.162Z,1821.2820
2023-03-28T01:52:39.203Z,1830.0210
2023-03-28T01:52:50.250Z,1826.2650
2023-03-28T01:53:01.329Z,1830.0210
2023-03-28T01:53:12.385Z,1821.2820
2023-03-28T01:53:23.478Z,1828.7670
2023-03-28T01:53:34.509Z,1820.0410
2023-03-28T01:53:45.562Z,1811.3979
2023-03-28T01:53:56.612Z,1832.5330
2023-03-28T01:54:07.683Z,1831.2760
2023-03-28T01:54:18.741Z,1846.4730
2023-03-28T01:54:29.830Z,1830.0210
2023-03-28T01:54:40.913Z,1826.2650
2023-03-28T01:54:52.004Z,1823.7700
2023-03-28T01:55:03.062Z,1808.9430
2023-03-28T01:55:14.169Z,1826.2650
2023-03-28T01:55:25.189Z,1816.3270
2023-03-28T01:55:41.585Z,1828.7670
2023-03-28T01:55:53.196Z,1813.8590
2023-03-28T01:56:04.271Z,1800.4050
2023-03-28T01:56:15.376Z,1811.3979
2023-03-28T01:56:26.449Z,1823.7700
2023-03-28T01:56:37.576Z,1825.0170
2023-03-28T01:56:48.788Z,1804.0540
2023-03-28T01:56:59.936Z,1823.7700
2023-03-28T01:57:11.148Z,1823.7700
2023-03-28T01:57:22.316Z,1828.7670
2023-03-28T01:57:33.442Z,1830.0210
2023-03-28T01:57:44.552Z,1830.0210
2023-03-28T01:57:55.592Z,1831.2760
2023-03-28T01:58:06.633Z,1807.7180
2023-03-28T01:58:17.710Z,1825.0170
2023-03-28T01:58:28.800Z,1812.6270
2023-03-28T01:58:39.880Z,1827.5150
2023-03-28T01:58:50.906Z,1811.3979
2023-03-28T01:59:01.951Z,1838.8430
2023-03-28T01:59:13.020Z,1821.2820
2023-03-28T01:59:24.119Z,1826.2650
2023-03-28T01:59:35.185Z,1811.3979
2023-03-28T01:59:46.243Z,1833.7910
2023-03-28T01:59:57.308Z,1825.0170
2023-03-28T02:00:08.353Z,1830.0210
2023-03-28T02:00:19.441Z,1828.7670
2023-03-28T02:00:30.491Z,1813.8590
2023-03-28T02:00:41.586Z,1827.5150
2023-03-28T02:00:52.653Z,1815.0920
2023-03-28T02:01:03.769Z,1831.2760
2023-03-28T02:01:14.886Z,1833.7910
2023-03-28T02:01:25.981Z,1826.2650
2023-03-28T02:01:37.119Z,1810.1689
2023-03-28T02:01:48.188Z,1806.4950
2023-03-28T02:01:59.304Z,1827.5150
2023-03-28T02:02:10.484Z,1821.2820
2023-03-28T02:02:21.650Z,1823.7700
2023-03-28T02:02:32.877Z,1811.3979
2023-03-28T02:02:44.257Z,1825.0170
2023-03-28T02:02:55.490Z,1806.4950
2023-03-28T02:03:06.828Z,1815.0920
2023-03-28T02:03:18.093Z,1816.3270
2023-03-28T02:03:29.223Z,1831.2760
2023-03-28T02:03:40.307Z,1830.0210
2023-03-28T02:03:51.390Z,1826.2650
2023-03-28T02:04:02.480Z,1833.7910
2023-03-28T02:04:20.463Z,1836.3140
2023-03-28T02:04:30.483Z,1817.5630
2023-03-28T02:04:41.515Z,1821.2820
2023-03-28T02:04:52.579Z,1807.7180
2023-03-28T02:05:08.421Z,1821.2820
2023-03-28T02:05:19.510Z,1821.2820
2023-03-28T02:05:30.570Z,1822.5260
2023-03-28T02:05:41.644Z,1818.8010
2023-03-28T02:05:52.703Z,1821.2820
2023-03-28T02:06:03.752Z,1826.2650
2023-03-28T02:06:14.832Z,1804.0540
2023-03-28T02:06:25.893Z,1827.5150
2023-03-28T02:06:36.980Z,1816.3270
2023-03-28T02:06:48.033Z,1823.7700
2023-03-28T02:06:59.069Z,1820.0410
2023-03-28T02:07:10.141Z,1820.0410
2023-03-28T02:07:21.198Z,1811.3979